Stations météo

réclame
Mon MeteoGroup
Karlsruhe/Baden-Baden, Allemagne (10722): Température de l'air & dewpoint: 11.07.2018 13:00:00 - 17.07.2018 13:00:00 (CEST)Karlsruhe/Baden-Baden, Allemagne (10722): Vitesse du vent: 11.07.2018 13:00:00 - 17.07.2018 13:00:00 (CEST)Karlsruhe/Baden-Baden, Allemagne (10722): Direction du vent: 11.07.2018 13:00:00 - 17.07.2018 13:00:00 (CEST)Karlsruhe/Baden-Baden, Allemagne (10722): visibility: 11.07.2018 13:00:00 - 17.07.2018 13:00:00 (CEST)
Date & Time tt [°C] td [°C] ff [km/h] ff [knt] dd vv [km]
17.07.2018 13:00:00 29,0 12,0 13 7 W 10
17.07.2018 12:00:00 27,0 14,0 15 8 SSW 10
17.07.2018 11:00:00 26,0 14,0 16 9 S 10
17.07.2018 10:00:00 24,0 14,0 16 9 SSW 10
17.07.2018 09:00:00 21,0 15,0 13 7 SW 10
17.07.2018 08:00:00 18,0 15,0 13 7 SSW 10
17.07.2018 07:00:00 14,0 13,0 9 5 SSW 10
17.07.2018 06:00:00 15,0 13,0 5 3 S 10
17.07.2018 05:00:00 13,0 13,0 8 4 SSW 10
17.07.2018 04:00:00 15,0 13,0 2 1 SSE 10
17.07.2018 03:00:00 15,0 14,0 0 0 N 10
17.07.2018 02:00:00 16,0 14,0 5 3 SSW 10
17.07.2018 01:00:00 17,0 14,0 4 2 SSW 10
17.07.2018 00:00:00 18,0 15,0 2 1 N 10
16.07.2018 23:00:00 20,0 14,0 2 1 - 10
16.07.2018 22:00:00 23,0 15,0 4 2 - 10
16.07.2018 21:00:00 25,0 14,0 5 3 N 10
16.07.2018 20:00:00 28,0 12,0 11 6 N 10
16.07.2018 19:00:00 28,0 11,0 15 8 N 10
16.07.2018 18:00:00 28,0 11,0 15 8 NNW 10
16.07.2018 17:00:00 28,0 12,0 15 8 N 10
16.07.2018 16:00:00 28,0 12,0 15 8 N 10
16.07.2018 15:00:00 27,0 14,0 13 7 N 10
16.07.2018 14:00:00 27,0 13,0 11 6 NNE 10
16.07.2018 13:00:00 25,0 16,0 8 4 NNW 10
16.07.2018 12:00:00 24,0 16,0 5 3 NNW 10
16.07.2018 11:00:00 23,0 16,0 4 2 - 10
16.07.2018 10:00:00 20,0 17,0 4 2 - 10
16.07.2018 09:00:00 18,0 17,0 4 2 - 10
16.07.2018 08:00:00 17,0 17,0 4 2 - 10
16.07.2018 07:00:00 16,0 16,0 2 1 - 10
16.07.2018 06:00:00 16,0 15,0 8 4 NNW 10
16.07.2018 05:00:00 17,0 16,0 9 5 ENE 10
16.07.2018 04:00:00 18,0 17,0 13 7 E 10
16.07.2018 03:00:00 18,0 16,0 13 7 N 10
16.07.2018 02:00:00 19,0 16,0 8 4 SSE 10
16.07.2018 01:00:00 19,0 16,0 4 2 - 10
16.07.2018 00:00:00 19,0 15,0 4 2 - 10
15.07.2018 23:00:00 19,0 15,0 4 2 - 10
15.07.2018 22:00:00 20,0 14,0 8 4 NNE 10
15.07.2018 21:00:00 22,0 15,0 13 7 NNE 10
15.07.2018 20:00:00 23,0 15,0 15 8 N 10
15.07.2018 19:00:00 24,0 15,0 21 11 N 10
15.07.2018 18:00:00 26,0 16,0 8 4 NNW 10
15.07.2018 17:00:00 28,0 12,0 8 4 NNW 10
15.07.2018 16:00:00 28,0 11,0 9 5 N 10
15.07.2018 15:00:00 29,0 11,0 5 3 - 10
15.07.2018 14:00:00 27,0 11,0 13 7 E 10
15.07.2018 13:00:00 26,0 13,0 5 3 - 10
15.07.2018 12:00:00 24,0 14,0 8 4 N 10
15.07.2018 11:00:00 23,0 14,0 8 4 NNE 10
15.07.2018 10:00:00 21,0 15,0 9 5 N 10
15.07.2018 09:00:00 21,0 14,0 4 2 - 10
15.07.2018 08:00:00 19,0 14,0 8 4 SSW 10
15.07.2018 07:00:00 19,0 14,0 5 3 ESE 10
15.07.2018 06:00:00 19,0 13,0 9 5 WNW 10
15.07.2018 05:00:00 18,0 13,0 11 6 NE 10
15.07.2018 04:00:00 17,0 13,0 5 3 NNE 10
15.07.2018 03:00:00 18,0 13,0 5 3 NE 10
15.07.2018 02:00:00 18,0 14,0 9 5 NNE 10
15.07.2018 01:00:00 18,0 16,0 9 5 N 10
15.07.2018 00:00:00 20,0 15,0 8 4 N 10
14.07.2018 23:00:00 21,0 15,0 5 3 NNE 10
14.07.2018 22:00:00 23,0 16,0 8 4 NNE 10
14.07.2018 21:00:00 26,0 17,0 4 2 NNW 10
14.07.2018 20:00:00 28,0 13,0 5 3 N 10
14.07.2018 19:00:00 29,0 11,0 8 4 N 10
14.07.2018 18:00:00 29,0 11,0 8 4 N 10
14.07.2018 17:00:00 29,0 8,0 9 5 N 10
14.07.2018 16:00:00 29,0 11,0 13 7 NNW 10
14.07.2018 15:00:00 29,0 11,0 13 7 N 10
14.07.2018 14:00:00 28,0 12,0 16 9 N 10
14.07.2018 13:00:00 27,0 15,0 13 7 NNW 10
14.07.2018 12:00:00 25,0 14,0 15 8 N 10
14.07.2018 11:00:00 24,0 15,0 11 6 NNW 10
14.07.2018 10:00:00 23,0 15,0 8 4 - 10
14.07.2018 09:00:00 21,0 14,0 5 3 E 10
14.07.2018 08:00:00 19,0 14,0 9 5 ENE 10
14.07.2018 07:00:00 18,0 14,0 13 7 NNE 10
14.07.2018 06:00:00 17,0 14,0 9 5 N 10
14.07.2018 05:00:00 17,0 14,0 11 6 NNE 10
14.07.2018 04:00:00 17,0 14,0 9 5 NNE 10
14.07.2018 03:00:00 18,0 14,0 11 6 NNE 10
14.07.2018 02:00:00 19,0 14,0 9 5 NNE 10
14.07.2018 01:00:00 20,0 14,0 8 4 N 10
14.07.2018 00:00:00 21,0 13,0 9 5 NNE 10
13.07.2018 23:00:00 22,0 14,0 9 5 NNE 10
13.07.2018 22:00:00 24,0 14,0 8 4 NNE 10
13.07.2018 21:00:00 26,0 14,0 5 3 NNW 10
13.07.2018 20:00:00 28,0 12,0 8 4 N 10
13.07.2018 19:00:00 28,0 10,0 9 5 N 10
13.07.2018 18:00:00 29,0 10,0 9 5 N 10
13.07.2018 17:00:00 28,0 11,0 13 7 N 10
13.07.2018 16:00:00 28,0 12,0 13 7 N 10
13.07.2018 15:00:00 28,0 11,0 11 6 N 10
13.07.2018 14:00:00 27,0 11,0 11 6 NNW 10
13.07.2018 13:00:00 26,0 13,0 11 6 NNW 10
13.07.2018 12:00:00 25,0 14,0 13 7 NNW 10
13.07.2018 11:00:00 23,0 15,0 9 5 N 10
13.07.2018 10:00:00 21,0 14,0 8 4 N 10
13.07.2018 09:00:00 19,0 14,0 11 6 N 10
13.07.2018 08:00:00 18,0 14,0 0 0 N 10
13.07.2018 07:00:00 13,0 13,0 2 1 - 10
13.07.2018 06:00:00 12,0 11,0 2 1 - 10
13.07.2018 05:00:00 12,0 12,0 2 1 - 10
13.07.2018 04:00:00 13,0 12,0 4 2 - 10
13.07.2018 03:00:00 14,0 13,0 2 1 - 10
13.07.2018 02:00:00 14,0 13,0 0 0 N 10
13.07.2018 01:00:00 15,0 13,0 4 2 NNE 10
13.07.2018 00:00:00 16,0 13,0 2 1 - 10
12.07.2018 23:00:00 18,0 13,0 4 2 S 10
12.07.2018 22:00:00 21,0 13,0 4 2 N 10
12.07.2018 21:00:00 23,0 13,0 9 5 N 10
12.07.2018 20:00:00 25,0 13,0 13 7 NNE 10
12.07.2018 19:00:00 25,0 12,0 13 7 NE 10
12.07.2018 18:00:00 25,0 10,0 11 6 N 10
12.07.2018 17:00:00 25,0 11,0 11 6 NNE 10
12.07.2018 16:00:00 24,0 12,0 11 6 N 10
12.07.2018 15:00:00 22,0 12,0 9 5 NNE 10
12.07.2018 14:00:00 23,0 13,0 9 5 NNW 10
12.07.2018 13:00:00 22,0 12,0 13 7 NNW 10
12.07.2018 12:00:00 20,0 13,0 8 4 - 10
12.07.2018 11:00:00 19,0 12,0 5 3 - 10
12.07.2018 10:00:00 18,0 11,0 8 4 SW 10
12.07.2018 09:00:00 17,0 10,0 11 6 SSW 10
12.07.2018 08:00:00 15,0 10,0 11 6 SSW 10
12.07.2018 07:00:00 14,0 10,0 8 4 SSW 10
12.07.2018 06:00:00 14,0 10,0 11 6 SSW 10
12.07.2018 05:00:00 14,0 10,0 8 4 SSW 9
12.07.2018 04:00:00 - - - - - -
12.07.2018 03:00:00 - - - - - -
12.07.2018 02:00:00 - - - - - -
12.07.2018 01:00:00 14,0 11,0 9 5 SW 10
12.07.2018 00:00:00 15,0 11,0 8 4 SSW 10
11.07.2018 23:00:00 15,0 12,0 8 4 S 10
11.07.2018 22:00:00 18,0 10,0 2 1 S 10
11.07.2018 21:00:00 21,0 10,0 4 2 N 10
11.07.2018 20:00:00 21,0 9,0 2 1 - 10
11.07.2018 19:00:00 21,0 9,0 8 4 NW 10
11.07.2018 18:00:00 22,0 9,0 8 4 WNW 10
11.07.2018 17:00:00 21,0 9,0 8 4 NNW 10
11.07.2018 16:00:00 21,0 10,0 13 7 N 10
11.07.2018 15:00:00 20,0 8,0 9 5 NW 10
11.07.2018 14:00:00 20,0 10,0 15 8 NNW 10
11.07.2018 13:00:00 19,0 9,0 9 5 NNW 10

tt = Température de l'air
td = dewpoint
ff = Vitesse du vent
dd = Direction du vent
vv = visibility

stations d'obs. à proximité